Time;durP1;ratioP1;P1;durP2;ratioP2;P2;SDS_P1;SDS_P2;PMS_P1;PMS_P2;Temp;Humidity;BMP_temperature;BMP_pressure;BME280_temperature;BME280_humidity;BME280_pressure;Samples;Min_cycle;Max_cycle;Signal;HPM_P1;HPM_P2
2022/09/17 00:01:16;;;;;;;14.07;3.92;;;;;;;21.01;55.30;101114.47;5071201;28;20036;-49
2022/09/17 00:03:42;;;;;;;13.02;4.63;;;;;;;20.79;55.31;101109.25;5071252;28;20056;-51
2022/09/17 00:06:11;;;;;;;14.02;4.60;;;;;;;20.85;55.80;101110.06;5070931;28;20032;-48
2022/09/17 00:08:39;;;;;;;11.38;4.28;;;;;;;20.32;57.53;101114.72;5071268;28;20129;-48
2022/09/17 00:11:15;;;;;;;13.75;4.93;;;;;;;20.40;57.17;101113.41;5091109;28;20035;-51
2022/09/17 00:13:42;;;;;;;19.02;5.03;;;;;;;20.60;56.94;101107.25;5091486;28;20077;-49
2022/09/17 00:16:10;;;;;;;13.52;4.32;;;;;;;20.48;56.75;101110.19;5093280;28;20034;-52
2022/09/17 00:18:39;;;;;;;11.55;4.18;;;;;;;20.65;56.44;101108.09;5089607;28;20036;-52
2022/09/17 00:21:06;;;;;;;14.98;4.43;;;;;;;20.61;55.99;101107.00;5099477;28;20069;-49
2022/09/17 00:23:32;;;;;;;13.43;4.28;;;;;;;20.53;56.38;101096.63;5090972;28;20024;-51
2022/09/17 00:25:58;;;;;;;13.00;3.95;;;;;;;20.59;56.15;101101.00;5090793;28;20028;-51
2022/09/17 00:28:25;;;;;;;15.13;4.68;;;;;;;20.50;56.15;101091.75;5090994;28;20094;-49
2022/09/17 00:30:51;;;;;;;10.23;4.00;;;;;;;20.46;56.19;101101.50;5096521;28;20475;-51
2022/09/17 00:33:19;;;;;;;17.15;5.43;;;;;;;20.50;55.95;101098.00;5093884;28;20027;-51
2022/09/17 00:35:56;;;;;;;13.60;4.20;;;;;;;20.49;55.94;101095.53;5095476;28;20024;-51
2022/09/17 00:38:22;;;;;;;13.40;5.05;;;;;;;20.26;56.47;101086.69;5083663;28;20024;-51
2022/09/17 00:40:48;;;;;;;13.55;4.57;;;;;;;20.15;56.99;101100.50;5099893;28;20023;-49
2022/09/17 00:43:42;;;;;;;16.83;4.53;;;;;;;20.19;57.36;101099.72;5109695;28;20051;-53
2022/09/17 00:46:29;;;;;;;12.77;4.60;;;;;;;20.11;57.15;101092.06;5097432;28;20024;-49
2022/09/17 00:48:58;;;;;;;11.82;4.18;;;;;;;20.15;57.36;101084.19;5103422;28;20550;-52
2022/09/17 00:51:39;;;;;;;17.77;4.38;;;;;;;20.17;56.81;101085.56;5105822;28;20024;-50
2022/09/17 00:54:09;;;;;;;14.55;4.35;;;;;;;20.05;57.03;101076.81;5098965;28;20803;-48
2022/09/17 00:56:38;;;;;;;15.82;4.50;;;;;;;20.01;57.40;101075.69;5098004;28;20103;-51
2022/09/17 00:59:05;;;;;;;14.43;4.70;;;;;;;19.88;57.44;101073.47;5097584;28;20384;-51
2022/09/17 01:01:32;;;;;;;14.55;4.55;;;;;;;20.00;57.56;101074.06;5099674;28;20570;-51
2022/09/17 01:03:58;;;;;;;12.65;4.13;;;;;;;20.04;57.76;101072.44;5093941;28;20392;-51
2022/09/17 01:06:52;;;;;;;11.45;5.57;;;;;;;19.95;57.74;101068.59;5086760;28;20017;-49
2022/09/17 01:09:35;;;;;;;12.93;4.25;;;;;;;19.92;57.41;101066.41;5078091;28;20028;-51
2022/09/17 01:12:43;;;;;;;18.73;4.75;;;;;;;19.72;57.97;101059.78;5078453;28;20028;-50
2022/09/17 01:15:25;;;;;;;13.90;4.30;;;;;;;19.84;57.90;101072.34;5073756;28;20090;-50
2022/09/17 01:18:13;;;;;;;16.50;4.07;;;;;;;19.73;58.03;101066.03;5074068;28;20052;-48
2022/09/17 01:21:10;;;;;;;11.95;4.10;;;;;;;19.44;57.83;101058.19;5093935;28;20491;-47
2022/09/17 01:24:11;;;;;;;13.20;4.28;;;;;;;19.57;57.99;101067.78;5110486;28;20031;-48
2022/09/17 01:27:01;;;;;;;9.00;4.20;;;;;;;19.63;58.08;101066.75;5106431;28;20036;-48
2022/09/17 01:30:05;;;;;;;14.50;4.43;;;;;;;19.61;58.12;101071.63;5078771;28;20031;-48
2022/09/17 01:32:50;;;;;;;16.13;4.72;;;;;;;19.50;58.48;101068.00;5093174;28;20032;-49
2022/09/17 01:35:54;;;;;;;9.25;3.85;;;;;;;19.43;59.09;101078.25;5093451;28;20115;-50
2022/09/17 01:38:42;;;;;;;18.45;4.35;;;;;;;19.29;59.11;101078.94;5082132;28;20082;-49
2022/09/17 01:41:40;;;;;;;12.68;4.13;;;;;;;19.13;59.23;101078.78;5073359;28;20119;-49
2022/09/17 01:44:20;;;;;;;9.95;4.03;;;;;;;18.97;60.18;101077.00;5068353;28;20041;-49
2022/09/17 01:46:52;;;;;;;12.60;4.32;;;;;;;19.09;60.30;101072.25;5092421;28;20140;-49
2022/09/17 01:49:20;;;;;;;13.23;4.60;;;;;;;19.20;59.78;101073.97;5093777;28;20040;-50
2022/09/17 01:51:49;;;;;;;12.73;4.18;;;;;;;18.97;60.94;101075.13;5093555;28;20372;-48
2022/09/17 01:54:27;;;;;;;14.70;4.82;;;;;;;18.67;62.30;101080.19;5093163;28;20099;-51
2022/09/17 01:57:12;;;;;;;20.67;5.07;;;;;;;18.64;62.35;101076.09;5092574;28;20515;-48
2022/09/17 01:59:50;;;;;;;13.95;4.57;;;;;;;18.52;62.26;101069.16;5093433;28;20392;-46
2022/09/17 02:02:25;;;;;;;13.32;4.63;;;;;;;18.20;63.43;101076.09;5092259;28;20393;-47
2022/09/17 02:05:02;;;;;;;15.73;4.15;;;;;;;18.45;62.24;101072.06;5095203;28;20030;-47
2022/09/17 02:07:32;;;;;;;15.05;3.70;;;;;;;18.41;62.27;101071.75;5105554;28;20274;-46
2022/09/17 02:10:11;;;;;;;11.85;3.95;;;;;;;18.25;62.94;101069.09;5113639;28;20016;-47
2022/09/17 02:12:46;;;;;;;15.13;4.18;;;;;;;18.15;63.57;101067.88;5113165;28;20104;-48
2022/09/17 02:15:25;;;;;;;12.10;4.28;;;;;;;18.16;63.51;101058.72;5111948;28;20031;-54
2022/09/17 02:18:06;;;;;;;18.95;4.55;;;;;;;18.19;63.44;101060.91;5092537;28;20044;-52
2022/09/17 02:20:44;;;;;;;19.60;4.35;;;;;;;17.84;64.97;101061.25;5112152;28;20062;-47
2022/09/17 02:23:20;;;;;;;14.70;4.20;;;;;;;18.04;64.77;101059.88;5094634;28;20468;-49
2022/09/17 02:25:56;;;;;;;14.10;4.60;;;;;;;17.54;66.38;101058.84;5092685;28;20028;-51
2022/09/17 02:28:41;;;;;;;15.52;4.60;;;;;;;17.72;66.20;101055.13;5092737;28;20088;-51
2022/09/17 02:31:07;;;;;;;13.63;4.50;;;;;;;17.74;66.76;101054.84;5091311;28;20055;-48
2022/09/17 02:33:37;;;;;;;18.45;5.28;;;;;;;17.65;66.96;101057.94;5108339;28;20032;-48
2022/09/17 02:36:03;;;;;;;15.93;4.53;;;;;;;17.64;67.07;101060.91;5112619;28;20019;-50
2022/09/17 02:38:30;;;;;;;23.25;5.05;;;;;;;17.85;66.55;101059.34;5112600;28;20119;-47
2022/09/17 02:41:13;;;;;;;13.23;4.63;;;;;;;17.78;66.89;101066.84;5112809;28;20019;-49
2022/09/17 02:44:01;;;;;;;17.75;4.40;;;;;;;17.81;66.56;101059.03;5099844;28;20067;-46
2022/09/17 02:46:49;;;;;;;16.05;4.30;;;;;;;17.93;66.59;101064.31;5071669;28;20027;-46
2022/09/17 02:49:34;;;;;;;15.82;4.53;;;;;;;17.64;67.24;101064.41;5092987;28;20392;-47
2022/09/17 02:52:10;;;;;;;19.80;5.00;;;;;;;17.77;67.39;101057.09;5092010;28;20024;-48
2022/09/17 02:55:31;;;;;;;15.30;4.90;;;;;;;17.46;68.34;101064.69;5091019;28;20020;-48
2022/09/17 02:58:11;;;;;;;23.55;5.05;;;;;;;17.41;68.62;101059.19;5029510;28;20026;-48
2022/09/17 03:00:38;;;;;;;12.80;4.38;;;;;;;17.38;68.17;101063.22;5085014;28;20545;-48
2022/09/17 03:03:21;;;;;;;20.75;5.10;;;;;;;17.46;67.63;101061.97;5091862;28;20111;-50
2022/09/17 03:05:49;;;;;;;13.43;4.60;;;;;;;17.33;68.57;101059.63;5089907;28;20024;-54
2022/09/17 03:08:19;;;;;;;22.27;5.00;;;;;;;17.28;68.96;101064.94;5092140;28;20081;-49
2022/09/17 03:10:48;;;;;;;15.90;5.93;;;;;;;17.04;69.77;101075.03;5092025;28;20484;-48
2022/09/17 03:13:15;;;;;;;15.13;4.40;;;;;;;16.92;70.11;101058.06;5091936;28;20472;-50
2022/09/17 03:15:41;;;;;;;16.40;4.57;;;;;;;16.94;70.00;101064.88;5091500;28;20127;-48
2022/09/17 03:18:08;;;;;;;21.60;5.55;;;;;;;16.93;69.70;101065.94;5091844;28;20513;-48
2022/09/17 03:20:34;;;;;;;16.88;4.78;;;;;;;17.07;69.38;101067.28;5112248;28;20028;-50
2022/09/17 03:23:00;;;;;;;15.70;4.65;;;;;;;16.95;69.65;101068.41;5093558;28;20218;-51
2022/09/17 03:25:27;;;;;;;16.35;4.97;;;;;;;16.79;69.63;101076.22;5091613;28;20084;-49
2022/09/17 03:27:53;;;;;;;14.98;4.75;;;;;;;16.66;70.17;101079.19;5091384;28;20389;-48
2022/09/17 03:30:19;;;;;;;13.00;4.45;;;;;;;16.76;69.56;101067.78;5092202;28;20112;-49
2022/09/17 03:32:46;;;;;;;14.40;4.30;;;;;;;16.71;69.44;101075.78;5091584;28;20032;-49
2022/09/17 03:35:12;;;;;;;14.10;4.50;;;;;;;16.64;69.98;101074.00;5091478;28;20377;-54
2022/09/17 03:37:38;;;;;;;25.23;4.85;;;;;;;16.74;69.22;101075.31;5091448;28;20020;-50
2022/09/17 03:40:05;;;;;;;18.20;4.57;;;;;;;16.68;69.37;101073.53;5091640;28;20034;-51
2022/09/17 03:42:31;;;;;;;14.02;4.15;;;;;;;16.74;69.29;101073.44;5094758;28;20039;-48
2022/09/17 03:44:59;;;;;;;15.05;4.88;;;;;;;16.69;69.34;101080.59;5091462;28;20062;-48
2022/09/17 03:47:25;;;;;;;17.67;4.80;;;;;;;16.76;69.10;101076.69;5091565;28;20422;-49
2022/09/17 03:49:51;;;;;;;16.23;4.25;;;;;;;16.61;70.08;101074.50;5091487;28;20472;-49
2022/09/17 03:52:18;;;;;;;17.52;4.50;;;;;;;16.60;70.27;101078.28;5091601;28;20032;-51
2022/09/17 03:54:44;;;;;;;19.25;4.90;;;;;;;16.68;70.24;101071.66;5091044;28;20067;-49
2022/09/17 03:57:10;;;;;;;13.55;5.30;;;;;;;16.60;70.12;101077.44;5091841;28;20380;-48
2022/09/17 03:59:36;;;;;;;12.65;4.05;;;;;;;16.50;70.62;101066.44;5091394;28;20094;-51
2022/09/17 04:02:02;;;;;;;18.02;4.00;;;;;;;16.39;70.98;101070.00;5089140;28;20024;-51
2022/09/17 04:04:28;;;;;;;16.50;5.22;;;;;;;16.46;70.40;101074.19;5070648;28;20107;-49
2022/09/17 04:06:55;;;;;;;19.13;4.47;;;;;;;16.25;70.78;101069.41;5071876;28;20389;-48
2022/09/17 04:09:21;;;;;;;14.13;5.35;;;;;;;16.27;70.74;101072.72;5074867;28;20028;-49
2022/09/17 04:11:47;;;;;;;18.63;4.70;;;;;;;16.30;70.34;101069.53;5083546;28;20542;-50
2022/09/17 04:14:13;;;;;;;15.73;4.43;;;;;;;16.40;69.99;101077.84;5094860;28;20028;-50
2022/09/17 04:16:39;;;;;;;21.25;4.93;;;;;;;16.41;69.98;101071.38;5094909;28;20028;-48
2022/09/17 04:19:06;;;;;;;19.60;5.30;;;;;;;16.17;70.50;101067.09;5095231;28;20027;-51
2022/09/17 04:21:32;;;;;;;20.02;4.50;;;;;;;16.24;70.03;101078.59;5084535;28;20034;-51
2022/09/17 04:23:58;;;;;;;17.30;5.28;;;;;;;16.24;69.93;101078.59;5074695;28;20028;-50
2022/09/17 04:26:25;;;;;;;17.20;4.50;;;;;;;16.25;70.51;101080.22;5083157;28;20133;-49
2022/09/17 04:28:51;;;;;;;17.45;4.68;;;;;;;16.21;70.42;101073.66;5095061;28;20020;-51
2022/09/17 04:31:17;;;;;;;13.77;4.20;;;;;;;16.15;70.49;101063.78;5094522;28;20426;-48
2022/09/17 04:33:43;;;;;;;15.30;4.45;;;;;;;16.23;69.79;101071.56;5094510;28;20035;-49
2022/09/17 04:36:09;;;;;;;18.58;5.63;;;;;;;16.13;70.03;101074.84;5094870;28;20068;-51
2022/09/17 04:38:35;;;;;;;11.50;4.18;;;;;;;16.03;70.03;101071.91;5094879;28;20028;-50
2022/09/17 04:41:02;;;;;;;16.45;4.45;;;;;;;16.06;70.20;101080.38;5093830;28;20020;-49
2022/09/17 04:43:28;;;;;;;18.63;4.70;;;;;;;16.12;69.61;101077.78;5073946;28;20013;-48
2022/09/17 04:45:54;;;;;;;23.17;4.72;;;;;;;16.08;69.34;101070.16;5074175;28;20029;-48
2022/09/17 04:48:20;;;;;;;12.35;4.63;;;;;;;15.98;69.51;101069.91;5089298;28;20032;-48
2022/09/17 04:50:46;;;;;;;13.82;4.32;;;;;;;15.94;69.77;101074.16;5094600;28;20353;-49
2022/09/17 04:53:13;;;;;;;14.65;4.07;;;;;;;15.98;69.66;101064.53;5094408;28;20031;-50
2022/09/17 04:55:39;;;;;;;15.02;5.32;;;;;;;15.98;69.56;101061.81;5094098;28;20031;-49
2022/09/17 04:58:05;;;;;;;12.98;4.70;;;;;;;15.93;69.76;101061.69;5094300;28;20035;-48
2022/09/17 05:00:31;;;;;;;18.95;5.10;;;;;;;15.89;69.60;101055.16;5094453;28;20024;-49
2022/09/17 05:02:58;;;;;;;10.90;3.95;;;;;;;15.82;70.20;101062.53;5092925;28;20050;-48
2022/09/17 05:05:24;;;;;;;13.25;4.75;;;;;;;15.72;70.44;101056.94;5093913;28;20031;-48
2022/09/17 05:07:50;;;;;;;16.63;4.53;;;;;;;15.75;70.02;101049.16;5094307;28;20024;-50
2022/09/17 05:10:18;;;;;;;14.48;4.18;;;;;;;15.82;69.90;101039.09;5094254;28;20032;-48
2022/09/17 05:12:49;;;;;;;13.90;4.93;;;;;;;15.64;70.53;101047.28;5077186;28;20074;-51
2022/09/17 05:15:15;;;;;;;16.70;4.88;;;;;;;15.61;70.18;101046.91;5076259;28;20020;-49
2022/09/17 05:17:41;;;;;;;25.20;6.10;;;;;;;15.62;70.33;101045.84;5089321;28;20480;-49
2022/09/17 05:20:08;;;;;;;20.17;4.65;;;;;;;15.53;70.33;101046.19;5079698;28;20036;-49
2022/09/17 05:22:34;;;;;;;16.30;4.63;;;;;;;15.53;70.60;101045.38;5094350;28;20020;-49
2022/09/17 05:25:01;;;;;;;17.45;4.80;;;;;;;15.56;70.90;101037.66;5093682;28;20056;-49
2022/09/17 05:27:27;;;;;;;14.60;4.50;;;;;;;15.52;70.76;101036.47;5093217;28;20032;-48
2022/09/17 05:29:53;;;;;;;14.68;4.72;;;;;;;15.52;70.84;101028.38;5088142;28;20035;-47
2022/09/17 05:32:19;;;;;;;15.93;5.10;;;;;;;15.59;70.89;101036.34;5093973;28;20464;-48
2022/09/17 05:34:45;;;;;;;18.33;4.70;;;;;;;15.58;71.21;101037.41;5093634;28;20366;-48
2022/09/17 05:37:12;;;;;;;16.13;4.32;;;;;;;15.58;71.19;101030.13;5093840;28;20028;-48
2022/09/17 05:39:38;;;;;;;13.75;4.38;;;;;;;15.64;71.13;101028.41;5093808;28;20098;-48
2022/09/17 05:42:05;;;;;;;20.95;5.35;;;;;;;15.49;71.18;101026.16;5093753;28;20377;-49
2022/09/17 05:44:31;;;;;;;18.40;4.95;;;;;;;15.49;71.57;101030.69;5092988;28;20024;-51
2022/09/17 05:46:58;;;;;;;25.40;5.40;;;;;;;15.34;72.26;101031.19;5092254;28;20085;-50
2022/09/17 05:49:24;;;;;;;15.68;4.15;;;;;;;15.32;72.36;101025.19;5093246;28;20111;-48
2022/09/17 05:51:50;;;;;;;19.77;4.53;;;;;;;15.37;71.68;101024.47;5092703;28;20032;-48
2022/09/17 05:54:17;;;;;;;14.93;4.47;;;;;;;15.25;72.15;101021.78;5093337;28;20028;-51
2022/09/17 05:56:43;;;;;;;15.30;4.72;;;;;;;15.36;71.62;101018.28;5093653;28;20024;-49
2022/09/17 05:59:09;;;;;;;14.50;4.55;;;;;;;15.17;72.35;101014.03;5093061;28;20480;-49
2022/09/17 06:01:35;;;;;;;17.48;4.68;;;;;;;15.14;72.48;101015.31;5093394;28;20099;-49
2022/09/17 06:04:03;;;;;;;20.27;4.25;;;;;;;15.18;72.19;101010.28;5092983;28;20020;-51
2022/09/17 06:06:30;;;;;;;21.20;4.47;;;;;;;15.20;72.19;101008.97;5087561;28;20029;-49
2022/09/17 06:08:59;;;;;;;16.65;4.53;;;;;;;15.08;72.32;101018.13;5072945;28;20052;-49
2022/09/17 06:11:25;;;;;;;13.68;4.45;;;;;;;15.22;71.69;101011.47;5072824;28;20099;-52
2022/09/17 06:13:54;;;;;;;16.35;5.20;;;;;;;15.18;71.86;101013.78;5074885;28;20037;-53
2022/09/17 06:16:22;;;;;;;15.52;4.22;;;;;;;15.32;71.43;101011.69;5093086;28;20059;-51
2022/09/17 06:18:54;;;;;;;15.32;4.20;;;;;;;15.18;71.70;101004.88;5093591;28;20045;-49
2022/09/17 06:21:21;;;;;;;13.73;4.65;;;;;;;15.05;72.55;101009.44;5092925;28;20055;-51
2022/09/17 06:23:49;;;;;;;19.73;4.93;;;;;;;15.05;72.58;101011.31;5092605;28;20472;-48
2022/09/17 06:26:16;;;;;;;15.35;4.07;;;;;;;15.26;71.63;101005.34;5092917;28;20059;-48
2022/09/17 06:28:42;;;;;;;15.20;4.32;;;;;;;15.08;72.43;101004.63;5093823;28;20020;-48
2022/09/17 06:31:10;;;;;;;15.57;5.20;;;;;;;15.16;71.81;101002.44;5092653;28;20362;-50
2022/09/17 06:33:37;;;;;;;18.00;4.15;;;;;;;15.20;71.67;101005.47;5092431;28;20028;-50
2022/09/17 06:36:10;;;;;;;11.82;4.07;;;;;;;15.18;71.71;101004.88;5092676;28;20043;-47
2022/09/17 06:38:37;;;;;;;16.73;5.40;;;;;;;15.28;71.53;100999.75;5092507;28;20059;-47
2022/09/17 06:41:03;;;;;;;19.85;5.10;;;;;;;15.08;71.92;100989.28;5090046;28;20526;-47
2022/09/17 06:43:30;;;;;;;19.10;4.45;;;;;;;15.09;71.98;100990.91;5086794;28;20060;-46
2022/09/17 06:45:58;;;;;;;15.52;4.35;;;;;;;15.17;71.49;100990.59;5071914;28;20546;-48
2022/09/17 06:48:28;;;;;;;18.90;5.07;;;;;;;14.92;72.50;100992.63;5072125;28;20112;-49
2022/09/17 06:51:00;;;;;;;17.20;4.63;;;;;;;14.96;72.35;100996.53;5071949;28;20549;-48
2022/09/17 06:53:28;;;;;;;14.18;4.38;;;;;;;15.13;71.83;100991.28;5071950;28;20035;-48
2022/09/17 06:55:57;;;;;;;16.42;4.75;;;;;;;14.98;72.25;100979.06;5072650;28;20032;-51
2022/09/17 06:58:24;;;;;;;13.38;4.63;;;;;;;15.12;71.81;100978.84;5093783;28;20035;-49
2022/09/17 07:00:50;;;;;;;23.73;4.97;;;;;;;15.08;71.64;100977.69;5094904;28;20035;-48
2022/09/17 07:03:17;;;;;;;15.77;4.78;;;;;;;15.17;71.60;100981.69;5112062;28;20053;-48
2022/09/17 07:05:44;;;;;;;12.43;4.88;;;;;;;15.24;71.14;100977.81;5085192;28;20025;-48
2022/09/17 07:08:10;;;;;;;14.07;4.65;;;;;;;15.10;71.93;100965.59;5073898;28;20032;-49
2022/09/17 07:10:36;;;;;;;16.60;4.28;;;;;;;15.12;72.05;100973.47;5091666;28;20069;-48
2022/09/17 07:13:03;;;;;;;23.67;4.50;;;;;;;14.99;72.57;100963.69;5081672;28;20439;-48
2022/09/17 07:15:29;;;;;;;21.17;5.20;;;;;;;15.01;72.44;100962.44;5070968;28;20020;-51
2022/09/17 07:17:55;;;;;;;21.15;5.30;;;;;;;14.99;72.69;100961.84;5071715;28;20481;-51
2022/09/17 07:20:22;;;;;;;21.98;5.25;;;;;;;14.85;73.42;100957.72;5071123;28;20037;-48
2022/09/17 07:22:56;;;;;;;16.05;4.32;;;;;;;14.98;73.18;100959.38;5073878;28;20416;-51
2022/09/17 07:25:23;;;;;;;21.20;4.65;;;;;;;14.92;73.35;100953.03;5109064;28;20023;-49
2022/09/17 07:27:50;;;;;;;17.75;5.15;;;;;;;15.03;72.75;100956.81;5112370;28;20027;-50
2022/09/17 07:30:16;;;;;;;14.10;4.22;;;;;;;14.89;73.45;100948.13;5108909;28;20075;-48
2022/09/17 07:32:42;;;;;;;19.25;5.07;;;;;;;14.79;73.96;100947.88;5078735;28;20074;-48
2022/09/17 07:35:08;;;;;;;13.93;4.93;;;;;;;14.85;73.69;100946.13;5071144;28;20032;-51
2022/09/17 07:37:35;;;;;;;12.90;4.63;;;;;;;14.86;73.55;100942.38;5071445;28;20032;-49
2022/09/17 07:40:01;;;;;;;21.45;5.80;;;;;;;14.89;73.57;100942.72;5071285;28;20036;-47
2022/09/17 07:42:27;;;;;;;14.32;5.00;;;;;;;14.88;73.51;100938.41;5070924;28;20047;-48
2022/09/17 07:44:54;;;;;;;15.88;4.50;;;;;;;14.95;73.17;100941.81;5092274;28;20039;-48
2022/09/17 07:47:20;;;;;;;17.00;5.10;;;;;;;14.85;73.59;100936.16;5091221;28;20420;-49
2022/09/17 07:49:46;;;;;;;27.55;5.53;;;;;;;14.83;73.56;100938.28;5090772;28;20028;-49
2022/09/17 07:52:12;;;;;;;18.70;5.75;;;;;;;14.90;73.43;100944.38;5091463;28;20024;-47
2022/09/17 07:54:39;;;;;;;18.75;4.35;;;;;;;14.90;73.50;100938.97;5090089;28;20117;-47
2022/09/17 07:57:05;;;;;;;20.38;4.95;;;;;;;14.79;73.72;100931.69;5091469;28;20054;-47
2022/09/17 07:59:31;;;;;;;19.25;5.63;;;;;;;14.74;74.36;100935.06;5087308;28;20024;-48
2022/09/17 08:01:57;;;;;;;15.05;4.32;;;;;;;14.66;74.67;100937.31;5071179;28;20039;-48
2022/09/17 08:04:24;;;;;;;16.85;5.47;;;;;;;14.62;74.64;100933.41;5076314;28;20035;-47
2022/09/17 08:06:50;;;;;;;22.83;4.80;;;;;;;14.71;74.08;100930.16;5111497;28;20444;-48
2022/09/17 08:09:17;;;;;;;22.33;5.10;;;;;;;14.65;74.49;100925.69;5094248;28;20494;-49
2022/09/17 08:11:44;;;;;;;16.55;5.07;;;;;;;14.71;74.31;100923.94;5091276;28;20032;-49
2022/09/17 08:14:13;;;;;;;17.38;4.80;;;;;;;14.63;74.55;100926.97;5091060;28;20032;-48
2022/09/17 08:16:40;;;;;;;17.77;4.80;;;;;;;14.68;74.44;100930.63;5094541;28;20047;-48
2022/09/17 08:19:07;;;;;;;16.75;4.90;;;;;;;14.69;74.50;100929.56;5111570;28;20028;-49
2022/09/17 08:21:34;;;;;;;23.30;5.07;;;;;;;14.55;74.85;100922.75;5088905;28;20181;-47
2022/09/17 08:24:01;;;;;;;17.30;4.85;;;;;;;14.75;74.39;100938.59;5090787;28;20039;-50
2022/09/17 08:26:27;;;;;;;21.02;5.45;;;;;;;14.78;74.21;100938.16;5091406;28;20020;-48
2022/09/17 08:28:55;;;;;;;20.02;5.22;;;;;;;14.78;73.89;100932.75;5091374;28;20032;-50
2022/09/17 08:31:23;;;;;;;18.42;4.97;;;;;;;14.81;73.82;100932.28;5091367;28;20107;-48
2022/09/17 08:33:50;;;;;;;16.77;5.00;;;;;;;14.67;74.43;100920.09;5091170;28;20024;-48
2022/09/17 08:36:18;;;;;;;19.02;4.90;;;;;;;14.68;74.48;100916.31;5091215;28;20025;-51
2022/09/17 08:38:44;;;;;;;18.88;5.35;;;;;;;14.77;74.41;100917.66;5091163;28;20039;-48
2022/09/17 08:41:13;;;;;;;19.08;4.75;;;;;;;14.84;74.38;100917.53;5091209;28;20083;-48
2022/09/17 08:43:50;;;;;;;20.25;5.25;;;;;;;14.84;74.15;100934.53;5084054;28;20032;-49
2022/09/17 08:46:16;;;;;;;20.33;4.78;;;;;;;14.85;74.51;100930.78;5070990;28;20025;-50
2022/09/17 08:48:49;;;;;;;17.75;5.05;;;;;;;14.89;74.10;100926.56;5070429;28;20075;-50
2022/09/17 08:51:44;;;;;;;24.92;5.50;;;;;;;14.95;74.17;100924.81;5090786;28;20569;-48
2022/09/17 08:54:38;;;;;;;24.85;5.30;;;;;;;14.85;74.73;100922.69;5073742;28;20032;-49
2022/09/17 08:57:25;;;;;;;16.42;5.47;;;;;;;14.79;75.23;100920.91;5094606;28;20020;-50
2022/09/17 09:00:19;;;;;;;19.95;5.72;;;;;;;14.76;75.82;100918.69;5094445;28;20027;-49
2022/09/17 09:03:10;;;;;;;22.73;5.10;;;;;;;14.75;75.85;100923.25;5104326;28;20135;-50
2022/09/17 09:05:55;;;;;;;25.75;5.15;;;;;;;14.85;75.68;100909.22;5114729;28;20031;-50
2022/09/17 09:08:36;;;;;;;16.08;5.40;;;;;;;14.74;75.84;100908.13;5114899;27;20422;-49
2022/09/17 09:11:07;;;;;;;20.23;5.75;;;;;;;14.58;76.45;100903.41;5095829;28;20498;-49
2022/09/17 09:13:47;;;;;;;19.58;5.50;;;;;;;14.62;76.12;100903.78;5094025;28;20032;-48
2022/09/17 09:16:22;;;;;;;16.35;5.30;;;;;;;14.75;75.65;100917.84;5094384;28;20138;-49
2022/09/17 09:18:53;;;;;;;22.83;5.90;;;;;;;14.64;76.01;100907.88;5093695;28;20506;-49
2022/09/17 09:21:27;;;;;;;21.23;5.40;;;;;;;14.60;76.19;100906.69;5094035;28;20069;-50
2022/09/17 09:23:57;;;;;;;22.38;5.35;;;;;;;14.69;75.93;100908.00;5092786;28;20051;-48
2022/09/17 09:26:51;;;;;;;19.75;5.05;;;;;;;14.48;77.03;100898.59;5114208;28;20036;-50
2022/09/17 09:29:29;;;;;;;19.23;4.63;;;;;;;14.50;77.43;100890.28;5114864;28;20042;-48
2022/09/17 09:32:02;;;;;;;18.67;4.97;;;;;;;14.52;77.31;100891.69;5113195;28;20495;-50
2022/09/17 09:34:29;;;;;;;25.73;6.18;;;;;;;14.71;76.59;100894.28;5111162;28;20040;-50
2022/09/17 09:37:14;;;;;;;22.00;4.93;;;;;;;14.53;77.40;100896.03;5113953;28;20039;-49
2022/09/17 09:39:41;;;;;;;12.45;4.93;;;;;;;14.59;77.11;100898.84;5114074;28;20441;-51
2022/09/17 09:42:32;;;;;;;15.50;5.05;;;;;;;14.59;77.24;100905.06;5114652;28;20031;-49
2022/09/17 09:45:16;;;;;;;13.40;4.68;;;;;;;14.62;77.48;100903.78;5096249;28;20089;-51
2022/09/17 09:48:06;;;;;;;18.55;5.93;;;;;;;14.70;77.23;100906.13;5090887;28;20410;-49
2022/09/17 09:51:10;;;;;;;16.00;4.57;;;;;;;14.77;77.58;100904.16;5073037;28;20068;-49
2022/09/17 09:53:55;;;;;;;17.27;5.10;;;;;;;14.81;77.24;100899.94;5073132;28;20060;-50
2022/09/17 09:56:48;;;;;;;28.95;6.60;;;;;;;14.73;77.14;100894.91;5073186;28;20492;-48
2022/09/17 09:59:14;;;;;;;22.05;5.90;;;;;;;14.72;77.17;100896.78;5079741;28;20042;-50
2022/09/17 10:01:43;;;;;;;26.80;5.95;;;;;;;14.64;77.41;100890.91;5074870;28;20095;-50
2022/09/17 10:04:25;;;;;;;18.15;5.10;;;;;;;14.68;77.31;100898.28;5072470;28;20389;-49
2022/09/17 10:07:06;;;;;;;14.82;5.38;;;;;;;14.77;77.30;100896.91;5096371;28;20028;-49
2022/09/17 10:09:35;;;;;;;20.15;6.15;;;;;;;14.75;77.21;100890.91;5088929;28;20020;-49
2022/09/17 10:12:03;;;;;;;21.23;5.53;;;;;;;14.76;76.77;100895.25;5093035;28;20020;-49
2022/09/17 10:14:41;;;;;;;16.27;4.70;;;;;;;14.79;76.47;100885.88;5087415;28;20100;-51
2022/09/17 10:17:22;;;;;;;19.20;5.53;;;;;;;14.60;77.12;100878.94;5080096;28;20043;-52
2022/09/17 10:20:10;;;;;;;14.02;4.75;;;;;;;14.57;76.73;100864.06;5092838;28;20491;-49
2022/09/17 10:22:46;;;;;;;14.32;4.82;;;;;;;14.43;77.73;100870.66;5092215;28;20051;-50
2022/09/17 10:25:33;;;;;;;16.00;5.65;;;;;;;14.44;77.52;100870.47;5112226;28;20070;-49
2022/09/17 10:28:20;;;;;;;17.48;5.25;;;;;;;14.39;77.97;100875.72;5113447;28;20020;-49
2022/09/17 10:31:09;;;;;;;27.58;6.45;;;;;;;14.22;78.55;100867.47;5113510;28;20495;-49
2022/09/17 10:33:39;;;;;;;24.10;6.13;;;;;;;14.32;78.06;100872.28;5090382;28;20036;-49
2022/09/17 10:36:09;;;;;;;17.80;4.72;;;;;;;14.46;77.50;100872.91;5072197;28;20473;-49
2022/09/17 10:38:40;;;;;;;20.85;4.90;;;;;;;14.42;77.73;100869.84;5094235;28;20417;-51
2022/09/17 10:41:14;;;;;;;24.40;6.15;;;;;;;14.61;77.11;100867.94;5100994;27;20039;-49
2022/09/17 10:43:41;;;;;;;15.73;5.20;;;;;;;14.55;77.05;100865.34;5092039;28;20066;-48
2022/09/17 10:46:28;;;;;;;19.58;5.35;;;;;;;14.37;77.89;100858.94;5092449;28;20106;-50
2022/09/17 10:49:34;;;;;;;17.42;4.57;;;;;;;14.36;78.30;100856.50;5093781;28;20042;-52
2022/09/17 10:52:31;;;;;;;15.98;5.82;;;;;;;14.39;77.61;100856.03;5112913;28;20051;-49
2022/09/17 10:55:14;;;;;;;17.90;5.18;;;;;;;14.30;77.82;100847.47;5094705;28;20089;-49
2022/09/17 10:58:07;;;;;;;18.10;5.32;;;;;;;14.17;78.51;100831.53;5092382;28;20482;-49
2022/09/17 11:00:51;;;;;;;16.20;5.45;;;;;;;14.17;78.39;100837.72;5092288;28;20638;-49
2022/09/17 11:03:28;;;;;;;19.13;5.68;;;;;;;14.30;77.71;100842.09;5090302;28;20058;-52
2022/09/17 11:06:14;;;;;;;22.90;5.65;;;;;;;14.25;77.70;100836.56;5092214;28;20600;-48
2022/09/17 11:09:15;;;;;;;18.00;4.53;;;;;;;14.25;77.96;100836.56;5092124;28;20472;-51
2022/09/17 11:12:04;;;;;;;19.98;5.13;;;;;;;14.30;77.59;100843.97;5092281;28;20032;-49
2022/09/17 11:15:06;;;;;;;24.73;6.35;;;;;;;14.22;77.93;100837.03;5092935;28;20484;-50
2022/09/17 11:17:58;;;;;;;23.45;5.80;;;;;;;14.34;77.52;100840.56;5080685;28;20032;-48
2022/09/17 11:20:43;;;;;;;24.85;5.70;;;;;;;14.39;77.68;100845.28;5111930;28;20036;-49
2022/09/17 11:23:33;;;;;;;20.17;5.18;;;;;;;14.42;78.24;100842.09;5112140;28;20472;-50
2022/09/17 11:26:07;;;;;;;23.38;5.50;;;;;;;14.38;78.37;100841.75;5112182;28;20027;-50
2022/09/17 11:28:54;;;;;;;12.73;4.70;;;;;;;14.48;77.56;100838.50;5112171;28;20020;-49
2022/09/17 11:31:53;;;;;;;15.68;5.18;;;;;;;14.42;77.55;100837.53;5111993;28;20046;-47
2022/09/17 11:34:31;;;;;;;15.75;4.30;;;;;;;14.27;77.37;100834.47;5070764;28;20043;-49
2022/09/17 11:37:06;;;;;;;19.38;5.40;;;;;;;14.47;76.77;100834.19;5085799;28;20106;-48
2022/09/17 11:40:11;;;;;;;16.15;4.72;;;;;;;14.47;76.62;100826.94;5111961;28;20024;-49
2022/09/17 11:42:39;;;;;;;15.63;5.43;;;;;;;14.38;77.48;100828.31;5029067;28;20033;-49
2022/09/17 11:45:16;;;;;;;17.88;4.63;;;;;;;14.15;78.76;100828.22;5062257;28;20068;-49